Time;durP1;ratioP1;P1;durP2;ratioP2;P2;SDS_P1;SDS_P2;PMS_P1;PMS_P2;Temp;Humidity;BMP_temperature;BMP_pressure;BME280_temperature;BME280_humidity;BME280_pressure;Samples;Min_cycle;Max_cycle;Signal;HPM_P1;HPM_P2
2021/05/30 00:01:57;;;;;;;17.30;15.48;;;;;;;9.44;84.36;98887.36;1607823;89;20175;-71
2021/05/30 00:04:23;;;;;;;16.45;14.75;;;;;;;9.43;84.28;98898.02;1627507;87;21081;-73
2021/05/30 00:06:49;;;;;;;18.17;15.10;;;;;;;9.38;84.40;98885.61;1625822;87;21117;-73
2021/05/30 00:09:15;;;;;;;22.05;17.48;;;;;;;9.37;84.51;98881.94;1624079;87;21034;-72
2021/05/30 00:11:41;;;;;;;16.45;14.45;;;;;;;9.38;84.68;98881.54;1621342;87;21590;-72
2021/05/30 00:14:07;;;;;;;17.60;14.58;;;;;;;9.41;84.69;98872.67;1622537;87;21209;-70
2021/05/30 00:16:32;;;;;;;18.70;15.85;;;;;;;9.40;84.67;98882.52;1618894;87;21149;-71
2021/05/30 00:18:59;;;;;;;14.80;12.45;;;;;;;9.42;84.78;98876.92;1599321;88;21096;-71
2021/05/30 00:21:24;;;;;;;16.90;15.08;;;;;;;9.40;84.75;98875.16;1590716;90;21124;-71
2021/05/30 00:23:50;;;;;;;13.93;12.53;;;;;;;9.39;84.76;98870.14;1628144;87;21343;-72
2021/05/30 00:26:16;;;;;;;13.88;12.47;;;;;;;9.38;84.72;98890.26;1596914;89;21131;-71
2021/05/30 00:28:42;;;;;;;15.48;13.88;;;;;;;9.36;84.79;98879.02;1612255;89;21057;-72
2021/05/30 00:31:07;;;;;;;16.30;14.13;;;;;;;9.35;84.81;98876.89;1640046;86;21622;-71
2021/05/30 00:33:33;;;;;;;14.38;12.90;;;;;;;9.34;84.87;98868.58;1612202;89;21132;-73
2021/05/30 00:35:59;;;;;;;13.05;11.65;;;;;;;9.34;84.91;98875.35;1612324;89;21163;-73
2021/05/30 00:38:24;;;;;;;14.78;13.28;;;;;;;9.33;84.87;98875.94;1633897;86;21054;-72
2021/05/30 00:40:52;;;;;;;15.00;13.48;;;;;;;9.34;84.94;98871.28;1650651;86;21097;-71
2021/05/30 00:43:18;;;;;;;17.27;14.50;;;;;;;9.36;84.97;98871.69;1612445;89;21067;-72
2021/05/30 00:45:45;;;;;;;15.48;13.85;;;;;;;9.38;85.06;98869.93;1612297;89;21115;-72
2021/05/30 00:48:11;;;;;;;15.20;12.75;;;;;;;9.39;85.07;98874.98;1636039;86;21091;-72
2021/05/30 00:50:37;;;;;;;15.35;13.75;;;;;;;9.40;85.06;98877.10;1647604;86;21061;-73
2021/05/30 00:53:02;;;;;;;14.35;12.90;;;;;;;9.38;85.15;98878.06;1656393;86;21145;-72
2021/05/30 00:55:28;;;;;;;14.65;13.15;;;;;;;9.39;85.25;98873.63;1648443;86;21057;-72
2021/05/30 00:57:54;;;;;;;12.23;11.03;;;;;;;9.40;85.32;98878.46;1650630;86;21126;-73
2021/05/30 01:00:21;;;;;;;12.23;10.40;;;;;;;9.40;85.21;98875.16;1655719;86;21088;-71
2021/05/30 01:02:46;;;;;;;13.22;11.83;;;;;;;9.40;85.13;98876.52;1645486;86;21136;-72
2021/05/30 01:05:12;;;;;;;13.22;11.93;;;;;;;9.40;85.11;98884.65;1649841;86;21108;-71
2021/05/30 01:07:42;;;;;;;14.13;12.73;;;;;;;9.40;85.13;98881.17;1654583;86;21209;-71
2021/05/30 01:10:29;;;;;;;14.75;12.80;;;;;;;9.39;85.13;98872.85;1646823;86;21070;-71
2021/05/30 01:12:58;;;;;;;13.58;12.10;;;;;;;9.40;85.09;98877.10;1654321;86;21601;-71
2021/05/30 01:15:25;;;;;;;12.55;11.28;;;;;;;9.35;85.04;98878.25;1651579;86;21136;-72
2021/05/30 01:17:52;;;;;;;10.15;9.15;;;;;;;9.33;85.05;98884.06;1645782;86;21714;-72
2021/05/30 01:20:19;;;;;;;10.68;9.68;;;;;;;9.36;84.97;98873.59;1648382;86;21573;-72
2021/05/30 01:22:45;;;;;;;11.68;10.45;;;;;;;9.36;84.82;98872.23;1652447;86;21141;-71
2021/05/30 01:25:12;;;;;;;10.58;9.40;;;;;;;9.37;84.73;98862.97;1649370;86;21120;-72
2021/05/30 01:27:38;;;;;;;11.88;10.78;;;;;;;9.39;84.63;98864.72;1635290;86;21777;-71
2021/05/30 01:30:05;;;;;;;14.85;8.78;;;;;;;9.38;84.47;98863.92;1637518;86;21101;-72
2021/05/30 01:32:31;;;;;;;11.38;9.30;;;;;;;9.36;84.35;98864.11;1627680;87;21693;-72
2021/05/30 01:34:57;;;;;;;9.65;8.65;;;;;;;9.29;84.27;98862.94;1625999;87;21066;-72
2021/05/30 01:37:23;;;;;;;9.83;8.85;;;;;;;9.26;84.22;98861.00;1635688;87;21089;-71
2021/05/30 01:39:49;;;;;;;9.43;8.53;;;;;;;9.23;84.12;98855.59;1623701;87;21579;-73
2021/05/30 01:42:14;;;;;;;8.85;8.03;;;;;;;9.21;84.13;98857.89;1625797;87;21117;-71
2021/05/30 01:44:40;;;;;;;8.63;7.72;;;;;;;9.20;84.09;98850.94;1629872;87;21061;-70
2021/05/30 01:47:06;;;;;;;9.50;8.50;;;;;;;9.18;83.97;98851.31;1627194;87;21142;-71
2021/05/30 01:49:32;;;;;;;9.53;8.63;;;;;;;9.18;83.87;98846.47;1626644;87;21103;-71
2021/05/30 01:51:58;;;;;;;8.45;7.65;;;;;;;9.19;83.93;98854.20;1629108;87;21114;-72
2021/05/30 01:54:26;;;;;;;8.53;7.70;;;;;;;9.18;83.86;98858.08;1629737;86;21090;-72
2021/05/30 01:56:55;;;;;;;8.65;7.85;;;;;;;9.19;83.86;98860.20;1629625;87;21155;-71
2021/05/30 01:59:21;;;;;;;9.70;8.80;;;;;;;9.19;83.81;98854.78;1630220;87;21111;-71
2021/05/30 02:01:49;;;;;;;10.68;9.63;;;;;;;9.19;83.83;98855.56;1630533;87;21145;-72
2021/05/30 02:04:15;;;;;;;10.95;9.88;;;;;;;9.19;83.91;98852.84;1623619;87;21070;-72
2021/05/30 02:06:41;;;;;;;11.50;10.40;;;;;;;9.20;84.01;98850.94;1627988;87;21804;-73
2021/05/30 02:09:07;;;;;;;12.80;11.50;;;;;;;9.18;83.95;98862.15;1623710;87;21108;-72
2021/05/30 02:11:33;;;;;;;13.35;11.95;;;;;;;9.18;84.02;98862.73;1621614;87;21125;-71
2021/05/30 02:14:02;;;;;;;16.00;14.43;;;;;;;9.15;84.07;98855.38;1627916;87;21109;-71
2021/05/30 02:16:29;;;;;;;19.37;17.37;;;;;;;9.09;84.10;98857.09;1624491;86;22177;-73
2021/05/30 02:18:55;;;;;;;22.65;19.73;;;;;;;9.05;84.23;98861.72;1622078;87;21054;-73
2021/05/30 02:21:20;;;;;;;24.72;22.00;;;;;;;8.99;84.38;98863.25;1621035;87;21539;-72
2021/05/30 02:23:46;;;;;;;29.75;24.98;;;;;;;8.93;84.51;98862.66;1627259;87;21086;-71
2021/05/30 02:26:12;;;;;;;31.77;26.48;;;;;;;8.88;84.68;98861.86;1627281;87;21066;-72
2021/05/30 02:28:38;;;;;;;37.10;29.70;;;;;;;8.84;84.93;98861.08;1631825;86;21260;-71
2021/05/30 02:31:03;;;;;;;41.00;29.75;;;;;;;8.81;85.07;98868.62;1643448;86;21103;-72
2021/05/30 02:33:29;;;;;;;38.05;30.20;;;;;;;8.79;85.21;98860.09;1612595;89;21111;-72
2021/05/30 02:35:55;;;;;;;39.10;30.55;;;;;;;8.79;85.36;98863.38;1612820;89;21060;-72
2021/05/30 02:38:21;;;;;;;39.85;31.40;;;;;;;8.77;85.44;98864.33;1639495;86;21121;-71
2021/05/30 02:40:47;;;;;;;43.65;32.10;;;;;;;8.80;85.55;98862.98;1651957;86;21518;-71
2021/05/30 02:43:13;;;;;;;39.15;30.45;;;;;;;8.83;85.56;98862.80;1647600;86;21750;-72
2021/05/30 02:45:38;;;;;;;37.00;28.92;;;;;;;8.83;85.54;98857.39;1649414;86;21053;-73
2021/05/30 02:48:04;;;;;;;34.65;28.83;;;;;;;8.81;85.54;98865.11;1612810;89;21099;-73
2021/05/30 02:50:30;;;;;;;32.55;27.42;;;;;;;8.80;85.57;98860.86;1612629;89;21081;-72
2021/05/30 02:52:56;;;;;;;31.25;27.15;;;;;;;8.86;85.58;98859.33;1638531;86;21223;-71
2021/05/30 02:55:21;;;;;;;33.15;27.62;;;;;;;8.94;85.50;98860.91;1636425;86;21050;-70
2021/05/30 02:57:47;;;;;;;31.33;27.07;;;;;;;8.97;85.38;98861.50;1652557;86;21150;-71
2021/05/30 03:00:14;;;;;;;31.90;27.27;;;;;;;8.96;85.26;98859.95;1612790;89;21116;-72
2021/05/30 03:02:40;;;;;;;32.98;27.48;;;;;;;8.93;85.19;98863.43;1636820;86;21130;-71
2021/05/30 03:05:07;;;;;;;33.67;27.40;;;;;;;8.90;85.20;98858.78;1635229;86;21062;-71
2021/05/30 03:07:33;;;;;;;33.80;27.90;;;;;;;8.87;85.18;98866.31;1643713;86;21140;-71
2021/05/30 03:09:58;;;;;;;33.63;28.77;;;;;;;8.86;85.21;98870.94;1651879;86;21563;-70
2021/05/30 03:12:24;;;;;;;33.15;27.42;;;;;;;8.84;85.26;98872.50;1646935;86;21605;-70
2021/05/30 03:14:50;;;;;;;35.25;27.77;;;;;;;8.81;85.29;98871.33;1612729;87;21179;-72
2021/05/30 03:17:16;;;;;;;32.40;27.42;;;;;;;8.81;85.31;98874.59;1612640;89;21071;-72
2021/05/30 03:19:42;;;;;;;31.85;27.07;;;;;;;8.81;85.33;98872.68;1630456;87;21053;-71
2021/05/30 03:22:08;;;;;;;31.40;27.15;;;;;;;8.82;85.34;98876.92;1635503;86;21136;-71
2021/05/30 03:24:34;;;;;;;34.63;28.12;;;;;;;8.84;85.38;98875.20;1613544;89;21097;-72
2021/05/30 03:26:59;;;;;;;31.37;27.17;;;;;;;8.84;85.33;98880.03;1610294;88;21163;-72
2021/05/30 03:29:25;;;;;;;28.65;25.43;;;;;;;8.87;85.33;98870.38;1632815;86;21066;-70
2021/05/30 03:31:51;;;;;;;30.10;26.17;;;;;;;8.88;85.28;98877.34;1643238;86;21135;-70
2021/05/30 03:34:17;;;;;;;30.30;26.85;;;;;;;8.89;85.25;98868.84;1643065;86;21033;-71
2021/05/30 03:36:45;;;;;;;30.37;26.62;;;;;;;8.91;85.19;98869.80;1633879;86;21116;-71
2021/05/30 03:39:10;;;;;;;;;;;;;;;8.96;85.18;98868.08;1648195;86;21081;-72
2021/05/30 03:41:40;;;;;;;28.52;25.43;;;;;;;9.03;85.10;98868.12;1642960;86;20210;-70
2021/05/30 03:44:05;;;;;;;26.90;24.02;;;;;;;9.08;84.80;98875.08;1640474;86;21069;-71
2021/05/30 03:46:31;;;;;;;25.62;23.02;;;;;;;9.08;84.72;98871.81;1593326;89;21112;-71
2021/05/30 03:48:57;;;;;;;26.48;23.70;;;;;;;9.13;84.61;98868.52;1593183;89;21151;-72
2021/05/30 03:51:23;;;;;;;23.77;21.20;;;;;;;9.19;84.56;98878.59;1631497;86;21175;-72
2021/05/30 03:53:48;;;;;;;22.87;20.60;;;;;;;9.29;84.40;98875.14;1593391;89;21120;-70
2021/05/30 03:56:14;;;;;;;21.87;19.57;;;;;;;9.44;84.20;98880.58;1636836;86;21539;-70
2021/05/30 03:58:40;;;;;;;21.35;19.12;;;;;;;9.53;83.93;98881.00;1637117;86;21120;-71
2021/05/30 04:01:06;;;;;;;20.48;18.45;;;;;;;9.62;83.69;98881.39;1641006;86;21066;-70
2021/05/30 04:03:31;;;;;;;20.70;18.57;;;;;;;9.73;83.43;98894.38;1638724;86;21079;-70
2021/05/30 04:05:57;;;;;;;20.40;18.30;;;;;;;9.81;83.10;98891.09;1644150;86;21053;-73
2021/05/30 04:08:23;;;;;;;19.82;17.87;;;;;;;9.84;82.84;98890.31;1642091;86;21109;-71
2021/05/30 04:10:50;;;;;;;20.15;18.07;;;;;;;9.94;82.66;98897.69;1641580;86;21303;-71
2021/05/30 04:13:15;;;;;;;19.10;17.10;;;;;;;10.06;82.42;98899.23;1641902;86;21117;-70
2021/05/30 04:15:41;;;;;;;19.02;17.02;;;;;;;10.19;82.05;98892.25;1593388;90;21452;-70
2021/05/30 04:18:07;;;;;;;19.50;17.40;;;;;;;10.30;81.75;98883.35;1593150;89;21120;-69
2021/05/30 04:20:33;;;;;;;19.85;17.77;;;;;;;10.43;81.33;98900.20;1639650;86;21028;-72
2021/05/30 04:22:58;;;;;;;18.12;16.37;;;;;;;10.58;81.17;98905.59;1642877;86;21105;-70
2021/05/30 04:25:24;;;;;;;18.62;16.73;;;;;;;10.65;80.58;98906.95;1641941;86;21083;-70
2021/05/30 04:27:50;;;;;;;17.98;16.17;;;;;;;10.71;80.38;98908.08;1645077;86;21645;-72
2021/05/30 04:30:16;;;;;;;17.05;15.35;;;;;;;10.67;79.78;98900.55;1656735;86;21634;-70
2021/05/30 04:32:42;;;;;;;18.77;16.77;;;;;;;10.59;79.72;98899.02;1653522;86;21152;-72
2021/05/30 04:35:09;;;;;;;18.87;16.97;;;;;;;10.64;79.79;98898.03;1647564;86;21593;-70
2021/05/30 04:37:35;;;;;;;18.85;16.95;;;;;;;10.72;79.63;98893.91;1649391;86;21593;-70
2021/05/30 04:40:01;;;;;;;19.62;17.57;;;;;;;10.76;79.48;98896.05;1649924;86;21065;-70
2021/05/30 04:42:27;;;;;;;19.27;17.52;;;;;;;10.74;79.31;98888.87;1658596;86;21629;-71
2021/05/30 04:44:52;;;;;;;18.67;16.80;;;;;;;10.76;79.17;98885.95;1661982;86;21521;-71
2021/05/30 04:47:18;;;;;;;19.50;17.60;;;;;;;10.76;78.99;98891.97;1657035;86;22343;-72
2021/05/30 04:49:44;;;;;;;19.45;17.45;;;;;;;10.72;79.03;98881.13;1664138;86;21061;-69
2021/05/30 04:52:10;;;;;;;18.80;17.00;;;;;;;10.88;78.98;98881.46;1644499;87;21065;-70
2021/05/30 04:54:36;;;;;;;17.05;15.45;;;;;;;11.02;78.78;98892.05;1655720;86;21104;-72
2021/05/30 04:57:02;;;;;;;16.80;15.10;;;;;;;11.06;78.38;98882.73;1646270;86;21122;-71
2021/05/30 04:59:28;;;;;;;17.10;15.40;;;;;;;11.08;78.12;98900.01;1658931;86;21096;-70
2021/05/30 05:01:54;;;;;;;17.23;15.43;;;;;;;11.05;78.03;98896.14;1646752;86;21116;-72
2021/05/30 05:04:20;;;;;;;17.30;15.48;;;;;;;11.05;78.07;98902.93;1651340;86;21108;-70
2021/05/30 05:06:46;;;;;;;19.50;17.45;;;;;;;10.99;78.08;98901.77;1649410;86;21005;-72
2021/05/30 05:09:11;;;;;;;18.82;16.97;;;;;;;10.92;78.19;98903.77;1650685;86;21132;-72
2021/05/30 05:11:37;;;;;;;19.82;17.82;;;;;;;10.85;78.33;98903.95;1644678;86;21041;-71
2021/05/30 05:14:03;;;;;;;19.73;17.87;;;;;;;10.83;78.52;98899.52;1650828;86;21504;-72
2021/05/30 05:16:30;;;;;;;18.92;17.02;;;;;;;10.94;78.61;98904.13;1651311;86;21641;-72
2021/05/30 05:18:56;;;;;;;18.95;17.10;;;;;;;11.01;78.50;98899.44;1650747;86;21114;-71
2021/05/30 05:21:22;;;;;;;18.48;16.65;;;;;;;11.06;78.50;98891.47;1654170;86;21076;-71
2021/05/30 05:23:47;;;;;;;19.27;17.27;;;;;;;11.16;78.36;98893.38;1664695;86;21132;-70
2021/05/30 05:26:13;;;;;;;18.45;16.60;;;;;;;11.20;78.25;98894.11;1656847;86;21033;-71
2021/05/30 05:28:39;;;;;;;18.52;16.57;;;;;;;11.32;78.10;98898.31;1641601;86;21132;-71
2021/05/30 05:31:04;;;;;;;18.62;16.73;;;;;;;11.34;77.93;98904.14;1627976;87;21054;-71
2021/05/30 05:33:31;;;;;;;18.37;16.57;;;;;;;11.36;77.74;98901.80;1628966;87;21122;-73
2021/05/30 05:35:56;;;;;;;18.60;16.70;;;;;;;11.34;77.64;98904.14;1636363;87;21603;-70
2021/05/30 05:38:22;;;;;;;17.82;15.98;;;;;;;11.40;77.59;98905.85;1627164;87;21117;-69
2021/05/30 05:40:48;;;;;;;17.50;15.85;;;;;;;11.36;77.58;98909.96;1628554;87;21030;-72
2021/05/30 05:43:14;;;;;;;17.87;16.00;;;;;;;11.43;77.56;98905.05;1627623;87;21074;-71
2021/05/30 05:45:39;;;;;;;18.17;16.37;;;;;;;11.49;77.48;98906.98;1625987;86;21588;-71
2021/05/30 05:48:10;;;;;;;17.62;15.85;;;;;;;11.53;77.40;98904.22;1625681;87;21141;-72
2021/05/30 05:50:35;;;;;;;17.62;15.95;;;;;;;11.50;77.28;98903.66;1627017;87;21089;-72
2021/05/30 05:53:01;;;;;;;18.35;16.62;;;;;;;11.50;77.42;98913.18;1622134;87;21118;-72
2021/05/30 05:55:27;;;;;;;18.95;17.00;;;;;;;11.53;77.35;98912.38;1628719;86;21066;-72
2021/05/30 05:57:53;;;;;;;17.75;15.95;;;;;;;11.51;77.44;98910.08;1610100;88;21101;-73
2021/05/30 06:00:20;;;;;;;17.80;16.07;;;;;;;11.58;77.40;98911.20;1627323;87;21022;-71
2021/05/30 06:02:47;;;;;;;;;;;;;;;11.51;77.27;98917.44;1631095;86;21089;-72
2021/05/30 06:05:18;;;;;;;19.32;17.42;;;;;;;11.49;77.30;98905.61;1631538;87;20242;-71
2021/05/30 06:07:44;;;;;;;19.07;17.10;;;;;;;11.48;77.32;98916.88;1627397;86;21085;-70
2021/05/30 06:10:11;;;;;;;20.32;18.27;;;;;;;11.47;77.56;98916.70;1587030;89;21096;-72
2021/05/30 06:12:37;;;;;;;20.35;18.35;;;;;;;11.45;77.61;98914.95;1586563;90;21602;-72
2021/05/30 06:15:04;;;;;;;20.75;18.65;;;;;;;11.51;77.70;98919.59;1618559;87;21176;-71
2021/05/30 06:17:30;;;;;;;20.30;18.20;;;;;;;11.55;77.68;98920.33;1587072;89;21085;-73
2021/05/30 06:19:56;;;;;;;21.20;19.10;;;;;;;11.58;77.58;98928.28;1586637;89;21180;-73
2021/05/30 06:22:21;;;;;;;20.97;18.77;;;;;;;11.53;77.51;98924.03;1586692;89;21095;-73
2021/05/30 06:24:47;;;;;;;20.95;18.85;;;;;;;11.51;77.59;98919.59;1574881;90;21120;-70
2021/05/30 06:27:13;;;;;;;22.50;20.27;;;;;;;11.50;77.59;98926.19;1572720;90;21041;-70
2021/05/30 06:29:39;;;;;;;23.02;20.65;;;;;;;11.47;77.59;98930.30;1585500;89;21160;-71
2021/05/30 06:32:05;;;;;;;23.77;21.25;;;;;;;11.41;77.84;98935.38;1585643;89;21045;-72
2021/05/30 06:34:31;;;;;;;22.82;20.40;;;;;;;11.42;77.99;98935.55;1571178;90;21152;-70
2021/05/30 06:36:57;;;;;;;22.82;20.62;;;;;;;11.36;78.02;98936.38;1573353;89;21547;-71
2021/05/30 06:39:23;;;;;;;23.77;21.50;;;;;;;11.30;78.19;98929.22;1570701;89;21716;-70
2021/05/30 06:41:50;;;;;;;24.92;22.45;;;;;;;11.24;78.38;98932.94;1586453;89;21072;-70
2021/05/30 06:44:15;;;;;;;24.32;21.93;;;;;;;11.26;78.45;98933.30;1562264;90;21755;-73
2021/05/30 06:46:41;;;;;;;24.15;21.93;;;;;;;11.24;78.49;98938.38;1585504;90;21612;-71
2021/05/30 06:49:07;;;;;;;25.37;22.70;;;;;;;11.21;78.58;98940.53;1571082;89;21128;-71
2021/05/30 06:51:33;;;;;;;24.80;22.40;;;;;;;11.21;78.73;98943.81;1574777;90;21029;-72
2021/05/30 06:53:59;;;;;;;25.35;22.85;;;;;;;11.18;78.85;98933.14;1567805;90;21203;-70
2021/05/30 06:56:25;;;;;;;26.52;23.75;;;;;;;11.21;78.91;98945.17;1591426;89;21153;-72
2021/05/30 06:58:51;;;;;;;26.07;23.47;;;;;;;11.20;78.99;98947.12;1585930;89;21685;-72
2021/05/30 07:01:19;;;;;;;26.50;23.90;;;;;;;11.14;79.13;98939.19;1572430;90;21571;-71
2021/05/30 07:03:44;;;;;;;;;;;;;;;11.14;79.28;98941.14;1572224;90;21169;-70
2021/05/30 07:06:10;;;;;;;26.97;24.27;;;;;;;11.13;79.41;98939.02;1596042;89;20193;-72
2021/05/30 07:08:36;;;;;;;28.10;25.23;;;;;;;11.17;79.33;98934.91;1586854;89;21122;-73
2021/05/30 07:11:02;;;;;;;27.58;24.67;;;;;;;11.17;79.44;98940.34;1586498;90;21085;-70
2021/05/30 07:13:28;;;;;;;27.80;24.95;;;;;;;11.16;79.67;98932.78;1585997;90;21652;-71
2021/05/30 07:15:53;;;;;;;28.77;25.90;;;;;;;11.21;79.82;98938.38;1585796;90;22349;-70
2021/05/30 07:18:20;;;;;;;29.32;26.25;;;;;;;11.28;79.85;98934.27;1585310;89;21812;-73
2021/05/30 07:20:46;;;;;;;28.05;25.25;;;;;;;11.42;79.95;98937.51;1585466;89;21089;-71
2021/05/30 07:23:12;;;;;;;27.13;24.45;;;;;;;11.58;79.81;98931.59;1585697;89;21132;-70
2021/05/30 07:25:38;;;;;;;27.10;23.50;;;;;;;11.69;79.58;98941.23;1585538;89;21040;-71
2021/05/30 07:28:04;;;;;;;25.43;23.02;;;;;;;11.68;79.43;98939.70;1582250;88;21060;-71
2021/05/30 07:30:30;;;;;;;26.48;23.77;;;;;;;11.13;79.36;98866.98;1637904;87;21062;-71
2021/05/30 07:32:56;;;;;;;26.10;23.40;;;;;;;11.80;79.30;98948.56;1637794;87;21055;-71
2021/05/30 07:35:22;;;;;;;27.50;24.63;;;;;;;11.76;79.22;98945.88;1631390;87;21126;-71
2021/05/30 07:37:47;;;;;;;28.40;25.48;;;;;;;11.69;79.29;98952.11;1627848;87;21117;-73
2021/05/30 07:40:14;;;;;;;28.67;25.77;;;;;;;11.60;79.70;98951.02;1633448;87;21520;-73
2021/05/30 07:42:40;;;;;;;29.00;26.02;;;;;;;11.61;79.88;98951.97;1622046;88;21146;-72
2021/05/30 07:45:07;;;;;;;28.42;25.43;;;;;;;11.63;80.08;98954.30;1629338;87;21110;-70
2021/05/30 07:47:32;;;;;;;29.65;26.55;;;;;;;11.68;80.16;98960.09;1646715;87;21084;-72
2021/05/30 07:49:58;;;;;;;27.80;24.85;;;;;;;11.78;80.15;98955.75;1646576;86;21139;-72
2021/05/30 07:52:24;;;;;;;26.40;23.70;;;;;;;11.80;80.05;98958.85;1645172;86;21036;-70
2021/05/30 07:54:49;;;;;;;26.97;24.32;;;;;;;11.81;80.06;98964.47;1633969;87;21149;-70
2021/05/30 07:57:15;;;;;;;27.20;24.45;;;;;;;11.89;80.16;98960.56;1628313;87;21087;-72
2021/05/30 07:59:41;;;;;;;27.35;24.55;;;;;;;11.99;80.08;98959.72;1642749;87;21614;-74
2021/05/30 08:02:07;;;;;;;26.50;23.85;;;;;;;12.03;79.95;98958.35;1642416;86;21638;-73
2021/05/30 08:04:33;;;;;;;28.12;25.32;;;;;;;12.10;80.03;98957.52;1634973;87;21128;-70
2021/05/30 08:06:59;;;;;;;26.68;23.98;;;;;;;12.23;80.25;98957.81;1632774;86;21061;-72
2021/05/30 08:09:25;;;;;;;26.15;23.57;;;;;;;12.38;79.94;98961.94;1631103;88;21149;-72
2021/05/30 08:11:53;;;;;;;26.37;23.77;;;;;;;12.37;79.56;98961.17;1630884;88;21614;-72
2021/05/30 08:14:21;;;;;;;26.15;23.45;;;;;;;12.33;79.53;98965.89;1630777;88;21181;-72
2021/05/30 08:16:47;;;;;;;26.40;23.70;;;;;;;12.35;79.53;98966.24;1631546;88;21101;-71
2021/05/30 08:19:13;;;;;;;25.90;23.38;;;;;;;12.43;79.47;98962.88;1631079;88;21741;-70
2021/05/30 08:21:40;;;;;;;26.97;24.30;;;;;;;12.51;79.33;98972.53;1631426;88;21085;-70
2021/05/30 08:24:06;;;;;;;26.25;23.57;;;;;;;12.52;79.20;98978.75;1631574;88;21137;-73
2021/05/30 08:26:32;;;;;;;27.93;25.10;;;;;;;12.49;79.12;98976.23;1632877;87;21602;-72
2021/05/30 08:28:58;;;;;;;26.48;23.95;;;;;;;12.47;79.07;98973.73;1636919;86;21114;-71
2021/05/30 08:31:23;;;;;;;28.98;26.07;;;;;;;12.46;79.14;98982.49;1628862;87;21607;-71
2021/05/30 08:33:49;;;;;;;27.75;25.05;;;;;;;12.46;79.08;98979.00;1633429;87;21705;-70
2021/05/30 08:36:15;;;;;;;29.05;25.95;;;;;;;12.52;79.06;98981.47;1635614;87;21639;-71
2021/05/30 08:38:41;;;;;;;26.87;24.15;;;;;;;12.56;79.09;98980.86;1632417;87;21655;-71
2021/05/30 08:41:06;;;;;;;26.55;23.90;;;;;;;12.62;78.83;98981.97;1633023;87;21075;-70
2021/05/30 08:43:32;;;;;;;25.60;23.00;;;;;;;12.64;78.97;98990.52;1631981;87;21034;-71
2021/05/30 08:45:58;;;;;;;26.25;23.75;;;;;;;12.70;78.66;98990.85;1632004;87;21070;-73
2021/05/30 08:48:24;;;;;;;24.05;21.57;;;;;;;12.68;78.78;98990.48;1634706;87;21046;-71
2021/05/30 08:51:08;;;;;;;24.60;22.17;;;;;;;12.70;78.70;98990.27;1632573;87;21058;-73
2021/05/30 08:53:35;;;;;;;22.52;20.25;;;;;;;12.74;78.80;98987.49;1633140;87;21070;-72
2021/05/30 08:56:02;;;;;;;22.58;20.27;;;;;;;12.79;78.76;98990.55;1638292;87;21126;-72
2021/05/30 08:58:39;;;;;;;23.67;21.20;;;;;;;12.73;78.77;98996.26;1627829;88;21118;-70
2021/05/30 09:01:15;;;;;;;23.27;20.88;;;;;;;12.68;79.06;98983.66;1636476;87;21094;-72
2021/05/30 09:04:07;;;;;;;22.82;20.52;;;;;;;12.63;79.15;99001.22;1628277;88;21069;-69
2021/05/30 09:06:34;;;;;;;21.70;19.60;;;;;;;12.56;79.38;98984.95;1628385;88;21520;-73
2021/05/30 09:09:00;;;;;;;22.42;20.30;;;;;;;12.50;79.58;98983.25;1625415;87;21161;-72
2021/05/30 09:11:36;;;;;;;20.20;18.05;;;;;;;12.50;79.83;98984.61;1634011;86;21638;-71
2021/05/30 09:14:04;;;;;;;22.17;19.98;;;;;;;12.65;79.80;98987.97;1630625;87;21804;-73
2021/05/30 09:16:47;;;;;;;21.05;18.57;;;;;;;12.76;79.93;98988.64;1616039;87;21086;-72
2021/05/30 09:19:35;;;;;;;20.90;18.80;;;;;;;13.06;79.85;98989.89;1620854;87;21105;-70
2021/05/30 09:22:19;;;;;;;19.15;17.23;;;;;;;13.16;79.52;98993.69;1584016;90;21123;-72
2021/05/30 09:24:52;;;;;;;19.20;17.23;;;;;;;13.18;79.23;98989.98;1601183;88;21115;-73
2021/05/30 09:27:20;;;;;;;20.40;18.42;;;;;;;13.16;79.02;98993.09;1585110;90;21097;-71
2021/05/30 09:29:47;;;;;;;19.10;17.30;;;;;;;13.25;79.28;98988.52;1587188;88;21183;-73
2021/05/30 09:32:13;;;;;;;20.20;18.23;;;;;;;13.44;78.93;98991.23;1604677;87;21064;-73
2021/05/30 09:34:40;;;;;;;19.75;17.77;;;;;;;13.51;78.66;98987.83;1623210;87;21087;-71
2021/05/30 09:37:08;;;;;;;16.70;15.18;;;;;;;13.59;78.37;99009.58;1626129;87;21081;-71
2021/05/30 09:39:40;;;;;;;;;;;;;;;13.63;77.88;98988.46;1610225;88;21119;-72
2021/05/30 09:42:37;;;;;;;19.20;17.40;;;;;;;13.65;77.87;98985.51;1622833;87;20245;-70
2021/05/30 09:45:11;;;;;;;18.35;16.60;;;;;;;13.67;77.86;98989.20;1622692;87;21641;-71
2021/05/30 09:47:44;;;;;;;18.32;16.60;;;;;;;13.64;77.91;98990.80;1621370;87;21058;-72
2021/05/30 09:50:12;;;;;;;17.77;16.15;;;;;;;13.63;77.93;98989.83;1631234;87;21153;-73
2021/05/30 09:52:43;;;;;;;18.05;16.35;;;;;;;13.69;77.89;98988.18;1611098;88;21053;-72
2021/05/30 09:55:17;;;;;;;17.45;15.78;;;;;;;13.76;77.78;98991.59;1592960;89;21111;-73
2021/05/30 09:58:14;;;;;;;17.32;15.75;;;;;;;13.70;77.66;98991.88;1621692;87;21597;-71
2021/05/30 10:00:41;;;;;;;17.23;15.65;;;;;;;13.64;77.70;98990.00;1627224;86;21141;-73
2021/05/30 10:03:06;;;;;;;15.43;14.03;;;;;;;13.62;77.95;98989.66;1620009;87;21093;-71
2021/05/30 10:05:33;;;;;;;15.50;14.07;;;;;;;13.70;77.93;98991.88;1601812;88;21127;-72
2021/05/30 10:07:59;;;;;;;15.23;13.83;;;;;;;13.81;77.80;98992.33;1617835;87;21086;-71
2021/05/30 10:10:26;;;;;;;17.45;15.75;;;;;;;13.86;77.45;98988.55;1626234;87;21105;-72
2021/05/30 10:12:51;;;;;;;15.93;14.47;;;;;;;13.82;77.56;98995.23;1616572;87;21133;-72
2021/05/30 10:15:17;;;;;;;16.97;15.35;;;;;;;13.76;77.61;98997.64;1628386;87;21856;-73
2021/05/30 10:17:43;;;;;;;16.65;15.08;;;;;;;13.68;77.89;98989.38;1628036;87;21207;-71
2021/05/30 10:20:11;;;;;;;17.15;15.58;;;;;;;13.66;77.98;98991.14;1625951;87;21072;-70
2021/05/30 10:22:41;;;;;;;18.30;16.60;;;;;;;13.66;78.22;98984.31;1608701;88;21052;-73
2021/05/30 10:25:07;;;;;;;16.27;14.78;;;;;;;13.67;78.37;98985.11;1620514;88;21095;-70
2021/05/30 10:27:34;;;;;;;16.32;14.80;;;;;;;13.72;78.41;98990.08;1621555;87;21039;-71
2021/05/30 10:30:15;;;;;;;15.93;14.53;;;;;;;13.76;78.32;98984.00;1605562;86;21138;-72
2021/05/30 10:32:45;;;;;;;15.18;13.80;;;;;;;13.85;78.36;98980.16;1627785;87;21569;-71
2021/05/30 10:35:18;;;;;;;15.98;14.47;;;;;;;13.99;78.05;98988.16;1628904;87;21118;-71
2021/05/30 10:37:54;;;;;;;15.32;13.95;;;;;;;13.89;77.59;98970.57;1596774;88;21046;-70
2021/05/30 10:40:26;;;;;;;16.52;14.93;;;;;;;14.17;77.57;98989.84;1617089;87;21687;-71
2021/05/30 10:43:11;;;;;;;15.78;14.35;;;;;;;14.31;77.29;98989.61;1596616;90;21053;-70
2021/05/30 10:45:53;;;;;;;15.80;14.20;;;;;;;14.37;77.12;98995.37;1620572;87;21126;-72
2021/05/30 10:48:19;;;;;;;15.30;13.80;;;;;;;14.39;77.27;98993.00;1597628;90;21025;-71
2021/05/30 10:53:44;;;;;;;13.25;12.05;;;;;;;14.32;77.14;98992.53;1614755;88;21074;-72
2021/05/30 10:56:15;;;;;;;10.25;9.35;;;;;;;14.30;76.90;98995.50;1624984;87;21179;-72
2021/05/30 10:58:42;;;;;;;9.75;8.85;;;;;;;14.29;76.39;98989.24;1622839;87;21709;-71
2021/05/30 11:01:15;;;;;;;9.78;8.98;;;;;;;14.25;75.83;98988.54;1619158;87;21073;-71
2021/05/30 11:03:52;;;;;;;9.20;8.40;;;;;;;14.36;75.81;98992.47;1612878;88;21030;-72
2021/05/30 11:06:27;;;;;;;8.65;7.95;;;;;;;14.47;75.30;98992.30;1624187;87;21098;-72
2021/05/30 11:08:55;;;;;;;9.48;8.68;;;;;;;14.47;74.72;98999.12;1579920;87;21132;-72
2021/05/30 11:11:29;;;;;;;9.33;8.60;;;;;;;14.30;74.66;98979.87;1629427;87;21200;-73
2021/05/30 11:13:57;;;;;;;8.85;8.15;;;;;;;14.43;74.73;98994.50;1618314;87;21053;-72
2021/05/30 11:16:27;;;;;;;9.78;8.88;;;;;;;14.48;74.68;98997.93;1615446;89;21113;-71
2021/05/30 11:19:04;;;;;;;9.23;8.40;;;;;;;14.48;74.93;98995.96;1615346;88;21057;-74
2021/05/30 11:21:34;;;;;;;8.60;7.93;;;;;;;14.61;74.77;99001.64;1615681;87;21202;-72
2021/05/30 11:24:00;;;;;;;10.05;9.03;;;;;;;14.63;74.42;98999.27;1629386;87;21305;-70
2021/05/30 11:26:26;;;;;;;8.65;7.87;;;;;;;14.74;74.39;99005.92;1634733;87;21142;-69